Terminal Aerodrome Forecast
Issued by NWS

Home | Current Version | Previous Version | Text Only | Print | Product List | Glossary On
Versions: 1 2 3 4 5 6 7 8 9 10 11 12 13 14 15 16 17 18 19
901
FTUS43 KGRR 302325
TAFJXN
TAF
KJXN 302325Z 3100/3124 04006KT P6SM VCTS BKN025CB
     FM310300 03003KT 5SM BR OVC025
     FM310500 33002KT 3SM BR OVC009
     FM310800 00000KT 1 1/2SM BR OVC003
     FM311500 04004KT P6SM BKN015
     FM312100 03005KT P6SM VCSH BKN025=

USA.gov is the U.S. government's official web portal to all federal, state and local government web resources and services.